createdAt,value
2022-12-29T00:01:59.555Z,9.90
2022-12-29T00:04:26.127Z,9.83
2022-12-29T00:06:53.417Z,9.93
2022-12-29T00:09:20.093Z,9.92
2022-12-29T00:11:46.694Z,9.87
2022-12-29T00:14:32.141Z,9.84
2022-12-29T00:16:58.851Z,9.77
2022-12-29T00:19:44.400Z,9.76
2022-12-29T00:22:31.605Z,9.79
2022-12-29T00:25:01.244Z,9.80
2022-12-29T00:27:48.276Z,9.81
2022-12-29T00:30:38.859Z,9.78
2022-12-29T00:33:34.414Z,9.79
2022-12-29T00:36:17.573Z,9.79
2022-12-29T00:39:09.109Z,9.75
2022-12-29T00:41:54.168Z,9.69
2022-12-29T00:44:20.901Z,9.72
2022-12-29T00:46:47.639Z,9.60
2022-12-29T00:49:33.048Z,9.71
2022-12-29T00:52:05.114Z,9.70
2022-12-29T00:54:34.106Z,9.48
2022-12-29T00:57:00.814Z,9.61
2022-12-29T00:59:27.415Z,9.66
2022-12-29T01:01:55.154Z,9.66
2022-12-29T01:04:23.467Z,9.66
2022-12-29T01:06:50.660Z,9.69
2022-12-29T01:09:36.741Z,9.71
2022-12-29T01:12:04.220Z,9.70
2022-12-29T01:14:30.751Z,9.59
2022-12-29T01:16:58.312Z,9.66
2022-12-29T01:19:25.510Z,9.53
2022-12-29T01:21:52.726Z,9.44
2022-12-29T01:24:21.048Z,9.37
2022-12-29T01:26:47.951Z,9.34
2022-12-29T01:29:14.536Z,9.18
2022-12-29T01:31:41.096Z,9.27
2022-12-29T01:34:07.947Z,9.23
2022-12-29T01:36:34.996Z,9.08
2022-12-29T01:39:01.491Z,9.05
2022-12-29T01:41:28.101Z,9.15
2022-12-29T01:43:57.520Z,9.11
2022-12-29T01:46:39.112Z,9.12
2022-12-29T01:49:08.599Z,9.13
2022-12-29T01:51:51.342Z,9.11
2022-12-29T01:54:26.155Z,8.84
2022-12-29T01:56:54.683Z,8.97
2022-12-29T01:59:25.882Z,9.05
2022-12-29T02:01:52.472Z,9.03
2022-12-29T02:04:19.382Z,9.06
2022-12-29T02:07:01.910Z,9.10
2022-12-29T02:09:28.527Z,9.01
2022-12-29T02:11:55.203Z,9.06
2022-12-29T02:14:22.791Z,9.04
2022-12-29T02:17:14.636Z,9.07
2022-12-29T02:20:16.239Z,9.04
2022-12-29T02:23:16.682Z,8.94
2022-12-29T02:26:21.444Z,9.03
2022-12-29T02:29:12.970Z,8.98
2022-12-29T02:31:52.794Z,8.94
2022-12-29T02:34:37.689Z,8.98
2022-12-29T02:37:31.984Z,9.03
2022-12-29T02:40:17.768Z,8.95
2022-12-29T02:42:59.373Z,9.00
2022-12-29T02:45:45.066Z,8.96
2022-12-29T02:48:52.685Z,9.04
2022-12-29T02:51:26.786Z,9.07
2022-12-29T02:54:14.852Z,9.14
2022-12-29T02:56:41.334Z,9.09
2022-12-29T02:59:08.809Z,9.11
2022-12-29T03:02:15.767Z,9.18
2022-12-29T03:05:00.730Z,9.42
2022-12-29T03:08:05.545Z,9.45
2022-12-29T03:10:58.376Z,9.61
2022-12-29T03:13:45.531Z,9.61
2022-12-29T03:23:36.069Z,9.76
2022-12-29T03:26:07.936Z,9.82
2022-12-29T03:28:42.900Z,9.86
2022-12-29T03:31:11.298Z,9.86
2022-12-29T03:33:40.108Z,9.90
2022-12-29T03:36:12.581Z,9.80
2022-12-29T03:38:49.783Z,9.80
2022-12-29T03:41:20.886Z,9.97
2022-12-29T03:43:48.253Z,9.99
2022-12-29T03:46:14.824Z,10.06
2022-12-29T03:48:41.350Z,10.07
2022-12-29T03:51:07.925Z,10.01
2022-12-29T03:53:34.473Z,10.08
2022-12-29T03:56:01.201Z,10.16
2022-12-29T03:58:28.219Z,10.15
2022-12-29T04:00:54.819Z,10.19
2022-12-29T04:03:21.400Z,10.22
2022-12-29T04:05:47.877Z,10.16
2022-12-29T04:08:14.422Z,10.22
2022-12-29T04:10:41.165Z,10.19
2022-12-29T04:13:07.910Z,10.17
2022-12-29T04:15:34.550Z,10.08
2022-12-29T04:18:01.143Z,10.00
2022-12-29T04:20:46.000Z,10.03
2022-12-29T04:23:12.520Z,10.00
2022-12-29T04:25:39.040Z,10.00
2022-12-29T04:28:06.281Z,9.83
2022-12-29T04:30:32.896Z,9.90
2022-12-29T04:32:59.379Z,9.98
2022-12-29T04:35:25.925Z,9.95
2022-12-29T04:37:52.439Z,10.00
2022-12-29T04:40:19.070Z,10.06
2022-12-29T04:42:45.547Z,9.99
2022-12-29T04:45:12.147Z,10.12
2022-12-29T04:47:38.782Z,10.10
2022-12-29T04:50:05.932Z,10.02
2022-12-29T04:52:32.476Z,10.12
2022-12-29T04:54:58.965Z,10.07
2022-12-29T04:57:25.464Z,10.07
2022-12-29T04:59:51.999Z,10.20
2022-12-29T05:02:18.965Z,9.99
2022-12-29T05:04:45.860Z,10.23
2022-12-29T05:07:12.582Z,10.23
2022-12-29T05:09:39.182Z,10.20
2022-12-29T05:12:06.159Z,10.18
2022-12-29T05:14:32.754Z,10.18
2022-12-29T05:16:59.889Z,10.10
2022-12-29T05:19:26.347Z,10.09
2022-12-29T05:21:52.896Z,10.09
2022-12-29T05:24:19.578Z,10.02
2022-12-29T05:26:46.033Z,9.91
2022-12-29T05:29:12.708Z,9.93
2022-12-29T05:31:39.374Z,9.86
2022-12-29T05:34:06.193Z,9.91
2022-12-29T05:36:37.670Z,9.95
2022-12-29T05:39:05.539Z,9.91
2022-12-29T05:41:32.228Z,9.79
2022-12-29T05:43:58.724Z,9.82
2022-12-29T05:46:25.416Z,9.92
2022-12-29T05:48:51.884Z,9.93
2022-12-29T05:51:18.435Z,9.90
2022-12-29T05:53:44.903Z,9.88
2022-12-29T05:56:11.440Z,9.76
2022-12-29T05:58:37.956Z,9.82
2022-12-29T06:01:04.569Z,9.82
2022-12-29T06:03:31.211Z,9.82
2022-12-29T06:05:57.957Z,9.79
2022-12-29T06:08:24.771Z,9.78
2022-12-29T06:10:51.343Z,9.64
2022-12-29T06:13:17.820Z,9.59
2022-12-29T06:15:44.637Z,9.61
2022-12-29T06:18:15.142Z,9.60
2022-12-29T06:20:46.215Z,9.55
2022-12-29T06:23:15.557Z,9.49
2022-12-29T06:25:42.027Z,9.40
2022-12-29T06:28:08.623Z,9.39
2022-12-29T06:30:35.138Z,9.34
2022-12-29T06:33:01.673Z,9.30
2022-12-29T06:35:28.136Z,9.24
2022-12-29T06:37:54.994Z,9.24
2022-12-29T06:40:22.696Z,9.24
2022-12-29T06:42:49.363Z,9.15
2022-12-29T06:45:15.934Z,9.12
2022-12-29T06:47:43.890Z,9.17
2022-12-29T06:50:10.407Z,9.01
2022-12-29T06:52:36.953Z,9.09
2022-12-29T06:55:03.767Z,9.08
2022-12-29T06:57:30.272Z,8.97
2022-12-29T06:59:56.907Z,8.94
2022-12-29T07:02:26.223Z,9.04
2022-12-29T07:04:53.993Z,9.05
2022-12-29T07:07:21.388Z,8.97
2022-12-29T07:09:47.994Z,8.99
2022-12-29T07:12:14.506Z,8.87
2022-12-29T07:14:43.551Z,8.90
2022-12-29T07:17:10.591Z,8.90
2022-12-29T07:19:37.236Z,8.88
2022-12-29T07:22:03.768Z,8.90
2022-12-29T07:24:30.853Z,8.77
2022-12-29T07:26:57.509Z,8.84
2022-12-29T07:29:24.191Z,8.95
2022-12-29T07:31:50.900Z,8.97
2022-12-29T07:34:17.459Z,8.95
2022-12-29T07:36:43.964Z,8.94
2022-12-29T07:39:10.430Z,8.92
2022-12-29T07:41:38.222Z,8.94
2022-12-29T07:44:04.878Z,8.90
2022-12-29T07:46:56.253Z,8.70
2022-12-29T07:49:17.858Z,8.66
2022-12-29T07:51:44.416Z,8.81
2022-12-29T07:54:11.432Z,8.88
2022-12-29T07:56:37.926Z,8.81
2022-12-29T07:59:04.638Z,8.86
2022-12-29T08:01:31.275Z,8.72
2022-12-29T08:03:58.085Z,8.71
2022-12-29T08:06:24.651Z,8.79
2022-12-29T08:08:51.149Z,8.77
2022-12-29T08:11:17.796Z,8.70
2022-12-29T08:13:44.282Z,8.65
2022-12-29T08:16:10.862Z,8.54
2022-12-29T08:18:37.503Z,8.67
2022-12-29T08:21:05.431Z,8.65
2022-12-29T08:23:32.483Z,8.62
2022-12-29T08:26:04.075Z,8.69
2022-12-29T08:28:31.607Z,8.62
2022-12-29T08:30:59.968Z,8.68
2022-12-29T08:33:26.855Z,8.71
2022-12-29T08:35:53.406Z,8.71
2022-12-29T08:38:19.996Z,8.67
2022-12-29T08:40:46.592Z,8.63
2022-12-29T08:43:15.535Z,8.69
2022-12-29T08:45:45.000Z,8.77
2022-12-29T08:48:11.476Z,8.74
2022-12-29T08:50:37.988Z,8.86
2022-12-29T08:53:04.476Z,8.94
2022-12-29T08:55:30.942Z,8.95
2022-12-29T08:57:57.394Z,8.96
2022-12-29T09:00:23.927Z,8.99
2022-12-29T09:02:51.030Z,8.90
2022-12-29T09:05:17.951Z,8.93
2022-12-29T09:07:45.071Z,8.87
2022-12-29T09:10:11.725Z,8.96
2022-12-29T09:12:38.241Z,8.86
2022-12-29T09:15:06.118Z,8.91
2022-12-29T09:17:47.968Z,8.81
2022-12-29T09:20:17.118Z,8.87
2022-12-29T09:22:44.810Z,8.90
2022-12-29T09:25:12.414Z,8.97
2022-12-29T09:27:39.691Z,8.99
2022-12-29T09:30:08.969Z,9.03
2022-12-29T09:32:40.396Z,8.86
2022-12-29T09:35:10.450Z,9.03
2022-12-29T09:37:37.127Z,8.88
2022-12-29T09:40:05.867Z,8.90
2022-12-29T09:43:13.807Z,8.88
2022-12-29T09:45:47.045Z,8.79
2022-12-29T09:48:24.345Z,8.97
2022-12-29T09:51:04.530Z,8.93
2022-12-29T09:53:49.597Z,8.96
2022-12-29T09:56:22.651Z,9.04
2022-12-29T09:59:05.605Z,9.10
2022-12-29T10:01:38.464Z,9.14
2022-12-29T10:04:06.224Z,9.16
2022-12-29T10:07:27.503Z,9.28
2022-12-29T10:09:47.621Z,9.24
2022-12-29T10:12:42.028Z,9.38
2022-12-29T10:15:27.116Z,9.42
2022-12-29T10:18:09.674Z,9.36
2022-12-29T10:20:53.847Z,9.37
2022-12-29T10:23:37.055Z,9.39
2022-12-29T10:26:04.903Z,9.37
2022-12-29T10:28:47.402Z,9.41
2022-12-29T10:31:21.952Z,9.39
2022-12-29T10:33:53.039Z,9.39
2022-12-29T10:36:25.407Z,9.40
2022-12-29T10:39:02.682Z,9.37
2022-12-29T10:41:44.939Z,9.39
2022-12-29T10:44:16.657Z,9.47
2022-12-29T10:46:45.158Z,9.42
2022-12-29T10:49:21.900Z,9.37
2022-12-29T10:51:53.143Z,9.41
2022-12-29T10:54:33.713Z,9.47
2022-12-29T10:57:10.441Z,9.51
2022-12-29T10:59:38.256Z,9.56
2022-12-29T11:02:07.807Z,9.57
2022-12-29T11:04:52.998Z,9.62
2022-12-29T11:07:27.130Z,9.60
2022-12-29T11:09:54.374Z,9.47
2022-12-29T11:12:30.279Z,9.46
2022-12-29T11:15:11.960Z,9.62
2022-12-29T11:17:51.438Z,9.66
2022-12-29T11:20:36.505Z,9.82
2022-12-29T11:23:05.638Z,9.80
2022-12-29T11:25:32.354Z,9.82
2022-12-29T11:28:16.907Z,9.80
2022-12-29T11:30:44.274Z,9.77
2022-12-29T11:33:10.918Z,9.91
2022-12-29T11:35:43.385Z,9.82
2022-12-29T11:38:22.852Z,10.02
2022-12-29T11:40:49.980Z,10.05
2022-12-29T11:43:29.207Z,9.85
2022-12-29T11:45:57.545Z,10.19
2022-12-29T11:48:27.508Z,10.24
2022-12-29T11:50:56.788Z,10.15
2022-12-29T11:53:37.905Z,10.23
2022-12-29T11:56:11.750Z,10.24
2022-12-29T11:58:39.899Z,10.20
2022-12-29T12:01:28.672Z,10.23
2022-12-29T12:03:58.171Z,10.19
2022-12-29T12:06:25.655Z,10.04
2022-12-29T12:09:06.168Z,10.10
2022-12-29T12:11:38.986Z,10.06
2022-12-29T12:14:13.997Z,10.00
2022-12-29T12:16:44.453Z,9.93
2022-12-29T12:19:14.255Z,10.03
2022-12-29T12:21:45.684Z,10.02
2022-12-29T12:24:53.101Z,9.91
2022-12-29T12:27:25.602Z,10.05
2022-12-29T12:30:03.947Z,10.18
2022-12-29T12:33:01.943Z,10.05
2022-12-29T12:36:06.101Z,10.35
2022-12-29T12:38:47.837Z,10.36
2022-12-29T12:41:22.376Z,10.48
2022-12-29T12:44:02.956Z,10.59
2022-12-29T12:46:47.808Z,10.68
2022-12-29T12:49:51.899Z,10.85
2022-12-29T12:52:27.444Z,10.99
2022-12-29T12:55:18.273Z,11.05
2022-12-29T12:58:04.789Z,11.03
2022-12-29T13:00:41.254Z,10.95
2022-12-29T13:03:45.033Z,10.99
2022-12-29T13:06:55.916Z,10.88
2022-12-29T13:09:51.991Z,10.81
2022-12-29T13:12:52.500Z,10.67
2022-12-29T13:15:20.349Z,10.64
2022-12-29T13:18:27.524Z,10.67
2022-12-29T13:21:00.264Z,10.58
2022-12-29T13:23:35.929Z,10.61
2022-12-29T13:26:25.382Z,10.70
2022-12-29T13:29:13.845Z,10.66
2022-12-29T13:32:28.345Z,10.70
2022-12-29T13:35:08.319Z,10.82
2022-12-29T13:37:42.296Z,10.81
2022-12-29T13:40:18.114Z,10.68
2022-12-29T13:42:46.517Z,10.66
2022-12-29T13:45:20.015Z,10.53
2022-12-29T13:48:01.067Z,10.44
2022-12-29T13:50:30.904Z,10.38
2022-12-29T13:53:20.221Z,10.44
2022-12-29T13:56:05.904Z,10.44
2022-12-29T13:58:58.912Z,10.50
2022-12-29T14:01:44.363Z,10.19
2022-12-29T14:04:15.005Z,10.40
2022-12-29T14:06:43.327Z,10.33
2022-12-29T14:09:39.330Z,10.37
2022-12-29T14:12:39.474Z,10.31
2022-12-29T14:15:12.021Z,10.10
2022-12-29T14:17:41.756Z,10.11
2022-12-29T14:20:22.259Z,10.13
2022-12-29T14:23:17.114Z,9.93
2022-12-29T14:26:14.968Z,10.07
2022-12-29T14:28:50.649Z,10.03
2022-12-29T14:31:20.576Z,10.05
2022-12-29T14:34:12.069Z,10.08
2022-12-29T14:37:03.696Z,10.05
2022-12-29T14:39:42.577Z,10.02
2022-12-29T14:42:12.884Z,10.09
2022-12-29T14:45:03.179Z,10.04
2022-12-29T14:47:32.609Z,10.06
2022-12-29T14:50:15.142Z,9.94
2022-12-29T14:53:00.321Z,9.98
2022-12-29T14:55:47.523Z,9.89
2022-12-29T14:58:22.372Z,9.90
2022-12-29T15:00:49.472Z,9.92
2022-12-29T15:03:16.065Z,9.97
2022-12-29T15:05:49.817Z,9.90
2022-12-29T15:08:29.504Z,9.91
2022-12-29T15:11:07.057Z,9.84
2022-12-29T15:13:39.369Z,9.89
2022-12-29T15:16:21.476Z,9.86
2022-12-29T15:18:48.011Z,9.69
2022-12-29T15:21:22.474Z,9.69
2022-12-29T15:23:49.582Z,9.64
2022-12-29T15:26:22.053Z,9.67
2022-12-29T15:28:49.521Z,9.40
2022-12-29T15:31:30.003Z,9.64
2022-12-29T15:34:12.422Z,9.58
2022-12-29T15:36:42.229Z,9.58
2022-12-29T15:39:31.447Z,9.52
2022-12-29T15:42:02.277Z,9.41
2022-12-29T15:44:44.171Z,9.55
2022-12-29T15:47:19.190Z,9.49
2022-12-29T15:49:49.778Z,9.29
2022-12-29T15:52:22.068Z,9.40
2022-12-29T15:54:54.169Z,9.38
2022-12-29T15:57:26.787Z,9.46
2022-12-29T15:59:54.993Z,9.42
2022-12-29T16:02:24.189Z,9.29
2022-12-29T16:05:16.687Z,9.29
2022-12-29T16:07:42.054Z,9.16
2022-12-29T16:10:31.516Z,9.27
2022-12-29T16:13:19.406Z,9.18
2022-12-29T16:15:47.939Z,9.06
2022-12-29T16:18:45.127Z,9.14
2022-12-29T16:21:23.126Z,9.08
2022-12-29T16:23:52.395Z,9.07
2022-12-29T16:26:21.609Z,9.11
2022-12-29T16:28:50.871Z,9.01
2022-12-29T16:31:24.689Z,8.84
2022-12-29T16:33:56.400Z,8.85
2022-12-29T16:36:31.024Z,8.92
2022-12-29T16:39:12.565Z,8.82
2022-12-29T16:41:39.046Z,8.77
2022-12-29T16:44:25.893Z,8.62
2022-12-29T16:47:10.788Z,8.73
2022-12-29T16:49:40.125Z,8.68
2022-12-29T16:52:22.658Z,8.60
2022-12-29T16:55:03.502Z,8.47
2022-12-29T16:57:34.717Z,8.61
2022-12-29T17:00:03.869Z,8.49
2022-12-29T17:02:32.624Z,8.60
2022-12-29T17:04:59.307Z,8.54
2022-12-29T17:07:28.301Z,8.55
2022-12-29T17:09:55.307Z,8.43
2022-12-29T17:12:26.226Z,8.48
2022-12-29T17:15:01.610Z,8.46
2022-12-29T17:17:32.400Z,8.44
2022-12-29T17:20:04.005Z,8.40
2022-12-29T17:22:31.177Z,8.17
2022-12-29T17:24:59.957Z,8.27
2022-12-29T17:27:44.821Z,8.31
2022-12-29T17:30:28.380Z,8.11
2022-12-29T17:33:00.856Z,8.26
2022-12-29T17:35:28.616Z,8.22
2022-12-29T17:37:55.404Z,8.19
2022-12-29T17:40:33.374Z,7.97
2022-12-29T17:43:00.242Z,8.08
2022-12-29T17:45:29.519Z,8.02
2022-12-29T17:47:56.998Z,7.94
2022-12-29T17:50:25.841Z,8.05
2022-12-29T17:53:01.185Z,8.04
2022-12-29T17:55:34.585Z,7.92
2022-12-29T17:58:16.984Z,7.84
2022-12-29T18:00:43.790Z,7.80
2022-12-29T18:03:27.820Z,7.85
2022-12-29T18:05:55.019Z,7.71
2022-12-29T18:08:21.961Z,7.89
2022-12-29T18:10:48.668Z,7.82
2022-12-29T18:13:31.848Z,7.75
2022-12-29T18:16:02.626Z,7.65
2022-12-29T18:18:29.134Z,7.71
2022-12-29T18:20:59.429Z,7.75
2022-12-29T18:23:37.655Z,7.65
2022-12-29T18:26:07.818Z,7.73
2022-12-29T18:28:34.313Z,7.58
2022-12-29T18:31:01.921Z,7.63
2022-12-29T18:33:29.215Z,7.47
2022-12-29T18:35:58.490Z,7.48
2022-12-29T18:38:25.141Z,7.51
2022-12-29T18:40:52.570Z,7.44
2022-12-29T18:43:19.464Z,7.43
2022-12-29T18:45:47.025Z,7.39
2022-12-29T18:48:18.291Z,7.34
2022-12-29T18:50:46.104Z,7.30
2022-12-29T18:53:16.730Z,7.19
2022-12-29T18:55:43.401Z,7.21
2022-12-29T18:58:10.002Z,7.06
2022-12-29T19:00:36.856Z,7.11
2022-12-29T19:03:03.777Z,7.12
2022-12-29T19:05:38.845Z,7.10
2022-12-29T19:08:07.135Z,6.93
2022-12-29T19:10:34.922Z,7.04
2022-12-29T19:13:01.965Z,6.91
2022-12-29T19:15:37.812Z,6.85
2022-12-29T19:18:42.318Z,6.86
2022-12-29T19:20:56.861Z,7.00
2022-12-29T19:23:25.592Z,6.76
2022-12-29T19:25:54.431Z,7.01
2022-12-29T19:28:27.344Z,7.03
2022-12-29T19:31:02.785Z,7.01
2022-12-29T19:33:29.592Z,6.95
2022-12-29T19:36:02.247Z,6.92
2022-12-29T19:38:28.959Z,6.96
2022-12-29T19:40:55.620Z,6.90
2022-12-29T19:43:22.209Z,6.94
2022-12-29T19:45:48.850Z,6.78
2022-12-29T19:48:18.177Z,6.95
2022-12-29T19:50:45.652Z,6.93
2022-12-29T19:53:13.074Z,6.79
2022-12-29T19:55:43.351Z,6.84
2022-12-29T19:58:10.032Z,6.90
2022-12-29T20:00:40.033Z,6.90
2022-12-29T20:03:06.786Z,6.87
2022-12-29T20:05:33.531Z,6.91
2022-12-29T20:08:00.125Z,6.87
2022-12-29T20:10:26.703Z,6.82
2022-12-29T20:12:53.255Z,6.70
2022-12-29T20:15:19.955Z,6.74
2022-12-29T20:18:12.561Z,6.76
2022-12-29T20:20:34.291Z,6.75
2022-12-29T20:23:00.778Z,6.70
2022-12-29T20:25:46.448Z,6.75
2022-12-29T20:28:15.672Z,6.61
2022-12-29T20:30:42.980Z,6.71
2022-12-29T20:33:09.601Z,6.52
2022-12-29T20:35:36.704Z,6.59
2022-12-29T20:38:03.951Z,6.62
2022-12-29T20:40:30.546Z,6.45
2022-12-29T20:42:57.070Z,6.53
2022-12-29T20:45:23.851Z,6.52
2022-12-29T20:47:50.516Z,6.45
2022-12-29T20:50:17.282Z,6.28
2022-12-29T20:52:44.033Z,6.46
2022-12-29T20:55:10.752Z,6.38
2022-12-29T20:58:05.490Z,6.27
2022-12-29T21:00:25.618Z,6.44
2022-12-29T21:02:53.051Z,6.41
2022-12-29T21:05:24.371Z,6.27
2022-12-29T21:07:53.340Z,6.35
2022-12-29T21:10:20.328Z,6.24
2022-12-29T21:12:46.915Z,6.30
2022-12-29T21:15:15.460Z,6.22
2022-12-29T21:17:45.363Z,6.25
2022-12-29T21:20:20.042Z,6.22
2022-12-29T21:22:49.915Z,6.13
2022-12-29T21:25:16.692Z,6.20
2022-12-29T21:27:44.323Z,6.14
2022-12-29T21:30:12.079Z,6.14
2022-12-29T21:32:38.935Z,6.20
2022-12-29T21:35:06.201Z,6.12
2022-12-29T21:37:32.702Z,6.06
2022-12-29T21:39:59.422Z,5.94
2022-12-29T21:42:28.654Z,6.18
2022-12-29T21:45:19.915Z,6.05
2022-12-29T21:48:05.442Z,6.05
2022-12-29T21:50:32.000Z,6.24
2022-12-29T21:52:58.760Z,6.16
2022-12-29T21:55:28.191Z,6.19
2022-12-29T21:58:13.242Z,6.15
2022-12-29T22:00:58.212Z,6.18
2022-12-29T22:03:43.396Z,6.21
2022-12-29T22:06:29.548Z,6.26
2022-12-29T22:09:14.779Z,6.02
2022-12-29T22:12:00.023Z,6.16
2022-12-29T22:14:26.515Z,6.15
2022-12-29T22:16:53.069Z,6.14
2022-12-29T22:19:19.573Z,6.06
2022-12-29T22:21:46.069Z,6.09
2022-12-29T22:24:12.607Z,5.98
2022-12-29T22:26:39.077Z,6.11
2022-12-29T22:29:05.589Z,5.98
2022-12-29T22:31:32.773Z,5.96
2022-12-29T22:34:01.993Z,6.05
2022-12-29T22:36:29.294Z,5.98
2022-12-29T22:38:55.867Z,6.00
2022-12-29T22:41:22.952Z,5.97
2022-12-29T22:43:49.608Z,5.90
2022-12-29T22:46:16.100Z,5.88
2022-12-29T22:48:42.637Z,5.83
2022-12-29T22:51:09.470Z,5.93
2022-12-29T22:53:36.008Z,5.91
2022-12-29T22:56:07.911Z,5.85
2022-12-29T22:58:34.712Z,5.80
2022-12-29T23:01:01.865Z,5.78
2022-12-29T23:03:28.466Z,5.74
2022-12-29T23:05:59.645Z,5.65
2022-12-29T23:08:27.607Z,5.67
2022-12-29T23:10:54.196Z,5.61
2022-12-29T23:13:20.763Z,5.57
2022-12-29T23:15:48.089Z,5.32
2022-12-29T23:18:16.710Z,5.54
2022-12-29T23:20:44.377Z,5.54
2022-12-29T23:23:11.434Z,5.42
2022-12-29T23:25:38.868Z,5.48
2022-12-29T23:28:08.531Z,5.46
2022-12-29T23:30:35.565Z,5.27
2022-12-29T23:33:02.175Z,5.39
2022-12-29T23:35:28.763Z,5.40
2022-12-29T23:37:55.285Z,5.40
2022-12-29T23:40:21.784Z,5.24
2022-12-29T23:42:48.291Z,5.30
2022-12-29T23:45:14.931Z,5.44
2022-12-29T23:47:41.499Z,5.41
2022-12-29T23:50:08.707Z,5.47
2022-12-29T23:52:35.376Z,5.38
2022-12-29T23:55:02.080Z,5.36
2022-12-29T23:57:28.604Z,5.42
2022-12-29T23:59:55.184Z,5.56
